createdAt,value
2023-02-26T00:02:52.786Z,99689.78
2023-02-26T00:07:54.513Z,99688.09
2023-02-26T00:12:56.279Z,99699.38
2023-02-26T00:18:09.604Z,99710.63
2023-02-26T00:23:14.584Z,99711.75
2023-02-26T00:28:16.427Z,99721.69
2023-02-26T00:33:18.311Z,99722.69
2023-02-26T00:38:20.068Z,99730.38
2023-02-26T00:43:25.033Z,99739.41
2023-02-26T00:48:46.931Z,99746.25
2023-02-26T00:54:00.693Z,99751.84
2023-02-26T00:59:02.294Z,99761.91
2023-02-26T01:04:04.368Z,99760.69
2023-02-26T01:09:17.960Z,99768.91
2023-02-26T01:14:20.089Z,99765.69
2023-02-26T01:19:38.873Z,99773.41
2023-02-26T01:24:41.208Z,99761.44
2023-02-26T01:29:48.199Z,99773.31
2023-02-26T01:35:23.287Z,99779.69
2023-02-26T01:40:52.980Z,99784.19
2023-02-26T01:46:06.238Z,99805.34
2023-02-26T01:51:09.279Z,99809.25
2023-02-26T01:56:19.696Z,99821.53
2023-02-26T02:01:21.489Z,99810.50
2023-02-26T02:06:26.624Z,99816.16
2023-02-26T02:11:28.482Z,99809.13
2023-02-26T02:17:03.639Z,99809.41
2023-02-26T02:22:17.246Z,99812.03
2023-02-26T02:27:26.616Z,99833.81
2023-02-26T02:32:39.694Z,99847.22
2023-02-26T02:37:58.660Z,99829.75
2023-02-26T02:43:06.424Z,99845.47
2023-02-26T02:48:25.418Z,99849.06
2023-02-26T02:53:33.462Z,99850.06
2023-02-26T02:58:42.504Z,99843.47
2023-02-26T03:04:00.008Z,99843.28
2023-02-26T03:09:04.229Z,99850.56
2023-02-26T03:14:06.473Z,99855.25
2023-02-26T03:19:31.031Z,99861.75
2023-02-26T03:24:51.278Z,99882.53
2023-02-26T03:30:02.340Z,99872.63
2023-02-26T03:35:13.693Z,99880.19
2023-02-26T03:40:22.053Z,99890.84
2023-02-26T03:45:29.071Z,99901.53
2023-02-26T03:50:40.116Z,99906.09
2023-02-26T03:56:29.679Z,99918.75
2023-02-26T04:02:16.175Z,99933.00
2023-02-26T04:07:20.201Z,99945.84
2023-02-26T04:12:23.520Z,99965.28
2023-02-26T04:17:28.607Z,99967.94
2023-02-26T04:22:31.297Z,99978.66
2023-02-26T04:27:33.026Z,99969.28
2023-02-26T04:32:35.368Z,99973.50
2023-02-26T04:37:37.046Z,99998.03
2023-02-26T04:42:38.806Z,100014.63
2023-02-26T04:47:40.795Z,100020.50
2023-02-26T04:52:42.522Z,100017.69
2023-02-26T04:57:44.279Z,100024.19
2023-02-26T05:02:46.382Z,100022.47
2023-02-26T05:07:48.560Z,100024.63
2023-02-26T05:12:50.611Z,100031.50
2023-02-26T05:17:52.183Z,100044.31
2023-02-26T05:22:54.675Z,100046.28
2023-02-26T05:27:56.393Z,100048.41
2023-02-26T05:32:58.427Z,100064.75
2023-02-26T05:38:00.104Z,100077.94
2023-02-26T05:43:01.645Z,100099.78
2023-02-26T05:48:03.524Z,100120.72
2023-02-26T05:53:05.110Z,100126.91
2023-02-26T05:58:06.737Z,100102.56
2023-02-26T06:03:08.438Z,100112.47
2023-02-26T06:08:12.132Z,100133.34
2023-02-26T06:13:13.691Z,100133.19
2023-02-26T06:18:17.377Z,100144.63
2023-02-26T06:23:18.982Z,100154.63
2023-02-26T06:28:20.604Z,100181.41
2023-02-26T06:33:22.243Z,100211.00
2023-02-26T06:38:24.219Z,100211.28
2023-02-26T06:43:25.986Z,100216.34
2023-02-26T06:48:27.682Z,100225.38
2023-02-26T06:53:29.506Z,100234.25
2023-02-26T06:58:31.234Z,100241.16
2023-02-26T07:03:32.775Z,100244.81
2023-02-26T07:08:35.432Z,100262.81
2023-02-26T07:13:37.984Z,100272.66
2023-02-26T07:18:39.771Z,100272.78
2023-02-26T07:23:41.293Z,100282.47
2023-02-26T07:28:42.896Z,100280.19
2023-02-26T07:33:44.523Z,100278.00
2023-02-26T07:38:46.128Z,100278.25
2023-02-26T07:43:47.653Z,100285.25
2023-02-26T07:48:49.218Z,100275.16
2023-02-26T07:53:50.830Z,100291.66
2023-02-26T07:58:52.379Z,100281.63
2023-02-26T08:03:53.949Z,100275.63
2023-02-26T08:08:55.612Z,100288.31
2023-02-26T08:13:57.354Z,100270.00
2023-02-26T08:18:58.874Z,100267.69
2023-02-26T08:24:00.427Z,100259.94
2023-02-26T08:29:02.190Z,100273.09
2023-02-26T08:34:04.147Z,100246.88
2023-02-26T08:39:07.539Z,100220.75
2023-02-26T08:44:09.139Z,100240.31
2023-02-26T08:49:10.772Z,100223.44
2023-02-26T08:54:12.845Z,100215.63
2023-02-26T08:59:15.165Z,100201.91
2023-02-26T09:04:17.032Z,100218.38
2023-02-26T09:09:19.420Z,100203.91
2023-02-26T09:14:21.119Z,100196.38
2023-02-26T09:19:22.927Z,100213.78
2023-02-26T09:24:24.636Z,100213.31
2023-02-26T09:29:26.364Z,100225.63
2023-02-26T09:34:27.863Z,100215.75
2023-02-26T09:39:29.394Z,100201.44
2023-02-26T09:44:34.058Z,100218.28
2023-02-26T09:49:49.486Z,100174.19
2023-02-26T09:54:55.720Z,100169.13
2023-02-26T09:59:58.150Z,100072.81
2023-02-26T10:05:13.483Z,100126.84
2023-02-26T10:10:30.338Z,100080.19
2023-02-26T10:15:42.044Z,100052.06
2023-02-26T10:20:57.840Z,100096.06
2023-02-26T10:26:17.822Z,100105.47
2023-02-26T10:31:25.792Z,100119.44
2023-02-26T10:36:40.609Z,100136.63
2023-02-26T10:41:42.297Z,100137.28
2023-02-26T10:46:47.247Z,100135.09
2023-02-26T10:51:49.656Z,100125.31
2023-02-26T10:56:51.196Z,100130.25
2023-02-26T11:01:54.151Z,100140.66
2023-02-26T11:06:57.508Z,100110.00
2023-02-26T11:12:15.383Z,100118.78
2023-02-26T11:17:18.996Z,100129.69
2023-02-26T11:22:21.798Z,100131.72
2023-02-26T11:27:31.834Z,100128.66
2023-02-26T11:32:36.283Z,100119.31
2023-02-26T11:37:48.119Z,100118.84
2023-02-26T11:42:54.826Z,100149.72
2023-02-26T11:48:02.377Z,100160.03
2023-02-26T11:53:15.568Z,100247.97
2023-02-26T11:58:22.157Z,100303.56
2023-02-26T12:03:28.880Z,100287.56
2023-02-26T12:08:40.907Z,100259.94
2023-02-26T12:14:00.373Z,100234.00
2023-02-26T12:19:11.258Z,100252.38
2023-02-26T12:24:27.737Z,100254.25
2023-02-26T12:29:38.268Z,100236.16
2023-02-26T12:34:59.072Z,100218.44
2023-02-26T12:40:44.413Z,100190.22
2023-02-26T12:45:51.824Z,100187.16
2023-02-26T12:50:59.302Z,100163.84
2023-02-26T12:56:25.260Z,100129.41
2023-02-26T13:02:10.483Z,100092.25
2023-02-26T13:07:42.219Z,100084.69
2023-02-26T13:12:53.765Z,100091.25
2023-02-26T13:18:12.363Z,100080.88
2023-02-26T13:23:22.517Z,100093.84
2023-02-26T13:28:45.179Z,100073.91
2023-02-26T13:33:49.170Z,100038.22
2023-02-26T13:39:22.654Z,100031.13
2023-02-26T13:44:30.257Z,100009.59
2023-02-26T13:50:08.375Z,100015.16
2023-02-26T13:55:46.464Z,100018.97
2023-02-26T14:01:17.548Z,100072.09
2023-02-26T14:06:23.282Z,100024.25
2023-02-26T14:12:03.966Z,99984.91
2023-02-26T14:17:08.532Z,99969.63
2023-02-26T14:22:23.565Z,99963.81
2023-02-26T14:27:28.213Z,99971.75
2023-02-26T14:32:57.292Z,99905.81
2023-02-26T14:38:03.230Z,99955.84
2023-02-26T14:43:06.923Z,99956.44
2023-02-26T14:48:14.955Z,99949.34
2023-02-26T14:53:38.356Z,99958.09
2023-02-26T14:58:57.474Z,99944.69
2023-02-26T15:04:08.060Z,99975.41
2023-02-26T15:09:38.294Z,99963.94
2023-02-26T15:14:52.075Z,99909.16
2023-02-26T15:20:10.380Z,99946.59
2023-02-26T15:25:25.522Z,99919.41
2023-02-26T15:30:29.424Z,99965.00
2023-02-26T15:35:32.351Z,99970.75
2023-02-26T15:40:37.368Z,100030.38
2023-02-26T15:45:42.316Z,100013.06
2023-02-26T15:50:50.221Z,100024.19
2023-02-26T15:55:54.908Z,99948.25
2023-02-26T16:01:01.069Z,99939.31
2023-02-26T16:06:03.480Z,99983.75
2023-02-26T16:11:06.211Z,100047.59
2023-02-26T16:16:16.010Z,100122.78
2023-02-26T16:21:32.408Z,100112.75
2023-02-26T16:26:43.468Z,100065.19
2023-02-26T16:31:52.501Z,100080.00
2023-02-26T16:36:54.623Z,100093.34
2023-02-26T16:42:20.136Z,100109.25
2023-02-26T16:47:22.352Z,100129.88
2023-02-26T16:52:26.696Z,100152.16
2023-02-26T16:57:37.293Z,100140.19
2023-02-26T17:02:41.183Z,100140.53
2023-02-26T17:07:56.804Z,100154.88
2023-02-26T17:13:06.304Z,100124.53
2023-02-26T17:18:08.530Z,100104.97
2023-02-26T17:23:15.318Z,100100.75
2023-02-26T17:28:22.705Z,100092.69
2023-02-26T17:33:27.095Z,100109.06
2023-02-26T17:38:29.005Z,100144.19
2023-02-26T17:43:30.884Z,100105.41
2023-02-26T17:48:32.422Z,100124.28
2023-02-26T17:53:40.839Z,100123.59
2023-02-26T17:58:43.164Z,100145.03
2023-02-26T18:03:45.078Z,100156.47
2023-02-26T18:08:48.514Z,100138.09
2023-02-26T18:13:50.035Z,100189.00
2023-02-26T18:18:51.828Z,100154.31
2023-02-26T18:23:57.408Z,100160.19
2023-02-26T18:28:59.568Z,100173.00
2023-02-26T18:34:01.449Z,100124.31
2023-02-26T18:39:08.847Z,100123.66
2023-02-26T18:44:11.166Z,100146.56
2023-02-26T18:49:18.934Z,100153.47
2023-02-26T18:54:20.485Z,100176.72
2023-02-26T18:59:22.198Z,100185.47
2023-02-26T19:04:23.966Z,100190.69
2023-02-26T19:09:26.984Z,100217.63
2023-02-26T19:14:28.768Z,100242.53
2023-02-26T19:19:30.291Z,100280.25
2023-02-26T19:24:32.194Z,100278.00
2023-02-26T19:29:34.374Z,100300.31
2023-02-26T19:34:36.323Z,100328.28
2023-02-26T19:39:38.346Z,100346.44
2023-02-26T19:44:40.048Z,100349.13
2023-02-26T19:49:41.610Z,100340.59
2023-02-26T19:54:43.172Z,100322.91
2023-02-26T19:59:44.774Z,100333.63
2023-02-26T20:04:46.316Z,100346.81
2023-02-26T20:09:49.671Z,100342.22
2023-02-26T20:14:51.396Z,100306.06
2023-02-26T20:19:52.912Z,100327.41
2023-02-26T20:24:54.507Z,100314.09
2023-02-26T20:29:56.180Z,100322.16
2023-02-26T20:34:57.837Z,100344.66
2023-02-26T20:40:01.535Z,100344.78
2023-02-26T20:45:04.241Z,100371.91
2023-02-26T20:50:06.452Z,100368.06
2023-02-26T20:55:08.490Z,100365.31
2023-02-26T21:00:11.411Z,100400.56
2023-02-26T21:05:14.438Z,100392.25
2023-02-26T21:10:17.651Z,100390.75
2023-02-26T21:15:19.571Z,100415.00
2023-02-26T21:20:22.253Z,100409.91
2023-02-26T21:25:23.831Z,100398.53
2023-02-26T21:30:25.394Z,100399.00
2023-02-26T21:35:26.950Z,100413.06
2023-02-26T21:40:28.765Z,100444.81
2023-02-26T21:45:31.116Z,100458.56
2023-02-26T21:50:33.094Z,100469.31
2023-02-26T21:55:34.658Z,100474.53
2023-02-26T22:00:36.189Z,100492.66
2023-02-26T22:05:37.831Z,100504.69
2023-02-26T22:10:39.377Z,100510.75
2023-02-26T22:15:42.005Z,100511.66
2023-02-26T22:20:43.528Z,100538.22
2023-02-26T22:25:46.055Z,100544.16
2023-02-26T22:30:47.676Z,100581.38
2023-02-26T22:35:50.146Z,100589.44
2023-02-26T22:40:52.593Z,100598.47
2023-02-26T22:45:54.192Z,100618.28
2023-02-26T22:50:55.777Z,100634.38
2023-02-26T22:55:58.328Z,100628.16
2023-02-26T23:01:01.952Z,100658.13
2023-02-26T23:06:03.861Z,100656.97
2023-02-26T23:11:08.255Z,100654.44
2023-02-26T23:16:11.398Z,100648.34
2023-02-26T23:21:13.049Z,100667.16
2023-02-26T23:26:14.833Z,100687.09
2023-02-26T23:31:16.437Z,100670.13
2023-02-26T23:36:18.030Z,100696.84
2023-02-26T23:41:19.975Z,100687.53
2023-02-26T23:46:21.574Z,100712.66
2023-02-26T23:51:23.583Z,100716.19
2023-02-26T23:56:25.200Z,100705.88
